createdAt,value
2022-09-22T00:01:30.389Z,72.19
2022-09-22T00:04:01.474Z,72.98
2022-09-22T00:06:32.928Z,73.15
2022-09-22T00:09:01.998Z,72.75
2022-09-22T00:11:39.023Z,72.46
2022-09-22T00:14:27.643Z,73.91
2022-09-22T00:16:58.912Z,73.36
2022-09-22T00:19:37.612Z,73.64
2022-09-22T00:22:05.783Z,73.29
2022-09-22T00:24:33.562Z,74.05
2022-09-22T00:27:00.579Z,73.55
2022-09-22T00:29:29.637Z,73.56
2022-09-22T00:31:57.258Z,73.89
2022-09-22T00:34:26.927Z,74.12
2022-09-22T00:36:54.882Z,73.31
2022-09-22T00:39:21.889Z,73.65
2022-09-22T00:41:51.779Z,74.32
2022-09-22T00:44:21.370Z,73.33
2022-09-22T00:47:01.217Z,73.63
2022-09-22T00:50:17.346Z,74.00
2022-09-22T00:52:53.924Z,74.54
2022-09-22T00:55:33.060Z,74.25
2022-09-22T00:58:01.657Z,74.79
2022-09-22T01:00:29.049Z,77.21
2022-09-22T01:03:00.027Z,77.04
2022-09-22T01:05:28.347Z,77.82
2022-09-22T01:07:55.545Z,77.20
2022-09-22T01:10:23.852Z,78.13
2022-09-22T01:13:21.444Z,78.23
2022-09-22T01:16:26.358Z,77.93
2022-09-22T01:19:08.019Z,78.91
2022-09-22T01:22:04.698Z,79.34
2022-09-22T01:24:46.548Z,79.19
2022-09-22T01:27:53.795Z,79.54
2022-09-22T01:30:44.100Z,79.51
2022-09-22T01:33:22.557Z,78.91
2022-09-22T01:35:55.026Z,79.29
2022-09-22T01:38:33.229Z,77.42
2022-09-22T01:41:17.503Z,76.93
2022-09-22T01:44:00.161Z,76.64
2022-09-22T01:46:31.127Z,76.92
2022-09-22T01:49:06.316Z,76.89
2022-09-22T01:51:51.355Z,76.67
2022-09-22T01:54:32.190Z,77.11
2022-09-22T01:57:14.308Z,76.94
2022-09-22T01:59:44.664Z,77.25
2022-09-22T02:02:45.202Z,75.95
2022-09-22T02:05:32.134Z,76.47
2022-09-22T02:08:02.609Z,77.27
2022-09-22T02:10:37.056Z,77.06
2022-09-22T02:13:04.046Z,77.38
2022-09-22T02:15:49.763Z,77.12
2022-09-22T02:18:32.334Z,77.30
2022-09-22T02:20:59.520Z,77.04
2022-09-22T02:23:27.228Z,76.42
2022-09-22T02:25:55.634Z,76.66
2022-09-22T02:28:24.333Z,76.33
2022-09-22T02:31:18.495Z,76.98
2022-09-22T02:33:42.180Z,76.66
2022-09-22T02:36:54.801Z,77.43
2022-09-22T02:39:38.693Z,77.78
2022-09-22T02:42:35.214Z,78.52
2022-09-22T02:45:25.652Z,79.25
2022-09-22T02:48:23.841Z,79.56
2022-09-22T02:50:51.971Z,79.05
2022-09-22T02:53:18.905Z,79.21
2022-09-22T02:55:47.282Z,79.28
2022-09-22T02:58:16.560Z,80.30
2022-09-22T03:00:45.218Z,80.05
2022-09-22T03:03:12.671Z,80.62
2022-09-22T03:05:40.048Z,80.42
2022-09-22T03:08:07.649Z,80.69
2022-09-22T03:10:34.792Z,80.57
2022-09-22T03:13:17.674Z,79.77
2022-09-22T03:15:46.860Z,79.28
2022-09-22T03:18:14.635Z,79.72
2022-09-22T03:20:41.580Z,79.70
2022-09-22T03:23:09.176Z,79.05
2022-09-22T03:25:36.264Z,79.38
2022-09-22T03:28:03.343Z,79.52
2022-09-22T03:30:30.274Z,79.03
2022-09-22T03:32:58.195Z,79.41
2022-09-22T03:35:25.065Z,79.62
2022-09-22T03:37:51.955Z,80.19
2022-09-22T03:40:18.957Z,80.31
2022-09-22T03:42:48.453Z,80.48
2022-09-22T03:45:19.189Z,81.29
2022-09-22T03:47:50.898Z,82.09
2022-09-22T03:50:23.154Z,81.90
2022-09-22T03:52:53.023Z,82.45
2022-09-22T03:55:19.923Z,82.09
2022-09-22T03:57:46.947Z,81.60
2022-09-22T04:00:17.072Z,81.86
2022-09-22T04:02:44.197Z,81.66
2022-09-22T04:05:11.452Z,82.09
2022-09-22T04:07:43.147Z,81.61
2022-09-22T04:10:13.365Z,82.36
2022-09-22T04:12:40.158Z,82.27
2022-09-22T04:15:08.179Z,81.98
2022-09-22T04:17:35.440Z,83.24
2022-09-22T04:20:07.865Z,83.69
2022-09-22T04:22:34.888Z,83.93
2022-09-22T04:25:01.714Z,83.35
2022-09-22T04:27:28.646Z,84.08
2022-09-22T04:29:55.492Z,84.25
2022-09-22T04:32:22.356Z,84.22
2022-09-22T04:34:49.335Z,84.52
2022-09-22T04:37:16.134Z,85.07
2022-09-22T04:39:42.953Z,84.88
2022-09-22T04:42:09.861Z,84.32
2022-09-22T04:44:36.857Z,84.57
2022-09-22T04:47:04.710Z,84.46
2022-09-22T04:49:31.720Z,84.68
2022-09-22T04:51:58.983Z,83.93
2022-09-22T04:54:25.762Z,84.10
2022-09-22T04:56:52.580Z,83.45
2022-09-22T04:59:19.408Z,84.24
2022-09-22T05:01:46.277Z,84.02
2022-09-22T05:04:13.124Z,83.66
2022-09-22T05:06:41.658Z,83.86
2022-09-22T05:09:08.452Z,83.87
2022-09-22T05:11:35.301Z,83.92
2022-09-22T05:14:02.588Z,83.61
2022-09-22T05:16:31.182Z,83.48
2022-09-22T05:18:58.363Z,83.03
2022-09-22T05:21:25.268Z,83.02
2022-09-22T05:23:52.186Z,82.33
2022-09-22T05:26:19.282Z,82.43
2022-09-22T05:28:46.124Z,82.15
2022-09-22T05:31:12.902Z,81.53
2022-09-22T05:33:39.762Z,82.01
2022-09-22T05:36:06.687Z,79.22
2022-09-22T05:38:33.503Z,76.93
2022-09-22T05:41:01.266Z,73.83
2022-09-22T05:43:28.057Z,71.88
2022-09-22T05:45:54.984Z,68.49
2022-09-22T05:48:21.796Z,66.83
2022-09-22T05:50:48.929Z,65.64
2022-09-22T05:53:16.881Z,63.48
2022-09-22T05:55:43.679Z,62.57
2022-09-22T05:58:14.502Z,61.17
2022-09-22T06:00:42.107Z,60.05
2022-09-22T06:03:09.164Z,57.82
2022-09-22T06:05:39.127Z,55.29
2022-09-22T06:08:06.904Z,52.31
2022-09-22T06:10:37.494Z,50.10
2022-09-22T06:13:07.431Z,48.03
2022-09-22T06:15:36.023Z,46.71
2022-09-22T06:18:14.617Z,45.33
2022-09-22T06:20:43.015Z,44.28
2022-09-22T06:23:10.798Z,41.76
2022-09-22T06:25:37.636Z,40.60
2022-09-22T06:28:08.051Z,39.55
2022-09-22T06:30:40.013Z,39.93
2022-09-22T06:33:11.298Z,37.77
2022-09-22T06:35:42.830Z,37.85
2022-09-22T06:38:13.784Z,37.17
2022-09-22T06:40:42.334Z,36.49
2022-09-22T06:43:19.879Z,35.97
2022-09-22T06:45:46.940Z,35.06
2022-09-22T06:48:13.826Z,34.74
2022-09-22T06:50:40.969Z,34.32
2022-09-22T06:53:13.805Z,34.10
2022-09-22T06:55:43.927Z,33.65
2022-09-22T06:58:11.909Z,33.77
2022-09-22T07:00:41.870Z,33.21
2022-09-22T07:03:25.430Z,33.22
2022-09-22T07:05:58.168Z,32.84
2022-09-22T07:08:25.674Z,32.56
2022-09-22T07:11:04.255Z,32.20
2022-09-22T07:13:32.430Z,32.13
2022-09-22T07:16:01.366Z,31.90
2022-09-22T07:18:29.869Z,31.91
2022-09-22T07:21:14.768Z,31.11
2022-09-22T07:23:44.148Z,31.20
2022-09-22T07:26:15.796Z,31.28
2022-09-22T07:28:42.902Z,30.73
2022-09-22T07:31:15.176Z,29.63
2022-09-22T07:33:44.699Z,29.51
2022-09-22T07:36:19.200Z,29.49
2022-09-22T07:38:52.127Z,28.39
2022-09-22T07:41:22.053Z,29.33
2022-09-22T07:43:56.179Z,28.25
2022-09-22T07:46:24.094Z,28.24
2022-09-22T07:48:51.438Z,28.20
2022-09-22T07:51:25.613Z,28.21
2022-09-22T07:54:07.859Z,28.02
2022-09-22T07:56:37.122Z,26.42
2022-09-22T07:59:09.791Z,26.30
2022-09-22T08:01:44.947Z,26.73
2022-09-22T08:04:16.582Z,25.94
2022-09-22T08:06:45.874Z,24.77
2022-09-22T08:09:14.075Z,24.40
2022-09-22T08:11:48.520Z,24.21
2022-09-22T08:14:17.279Z,23.60
2022-09-22T08:16:45.760Z,23.62
2022-09-22T08:19:14.420Z,22.73
2022-09-22T08:21:49.186Z,21.55
2022-09-22T08:24:23.190Z,20.23
2022-09-22T08:26:52.822Z,19.32
2022-09-22T08:29:20.767Z,17.99
2022-09-22T08:31:49.191Z,17.68
2022-09-22T08:34:16.904Z,15.92
2022-09-22T08:36:48.657Z,15.99
2022-09-22T08:39:17.441Z,15.56
2022-09-22T08:42:12.172Z,15.08
2022-09-22T08:45:16.884Z,14.67
2022-09-22T08:48:12.296Z,13.82
2022-09-22T08:51:17.088Z,13.73
2022-09-22T08:53:49.625Z,13.51
2022-09-22T08:56:41.655Z,13.04
2022-09-22T08:59:24.268Z,12.55
2022-09-22T09:02:15.776Z,12.39
2022-09-22T09:05:19.408Z,12.37
2022-09-22T09:08:19.738Z,12.34
2022-09-22T09:10:59.463Z,11.90
2022-09-22T09:13:56.602Z,11.77
2022-09-22T09:16:44.261Z,11.71
2022-09-22T09:20:05.716Z,11.85
2022-09-22T09:22:43.774Z,11.57
2022-09-22T09:25:27.855Z,11.97
2022-09-22T09:28:06.700Z,11.79
2022-09-22T09:30:43.309Z,11.07
2022-09-22T09:33:20.758Z,10.23
2022-09-22T09:35:53.553Z,10.36
2022-09-22T09:38:39.767Z,10.62
2022-09-22T09:41:25.250Z,10.16
2022-09-22T09:43:54.376Z,10.32
2022-09-22T09:46:26.864Z,10.85
2022-09-22T09:49:11.048Z,10.71
2022-09-22T09:51:43.044Z,10.18
2022-09-22T09:54:17.135Z,10.57
2022-09-22T09:57:11.377Z,10.47
2022-09-22T10:00:08.058Z,10.06
2022-09-22T10:02:48.266Z,9.89
2022-09-22T10:05:17.938Z,10.25
2022-09-22T10:08:15.421Z,10.16
2022-09-22T10:10:42.949Z,10.89
2022-09-22T10:13:09.817Z,10.42
2022-09-22T10:15:40.358Z,10.70
2022-09-22T10:18:40.108Z,10.63
2022-09-22T10:21:16.843Z,10.87
2022-09-22T10:23:55.447Z,10.89
2022-09-22T10:26:30.490Z,12.54
2022-09-22T10:29:20.997Z,14.69
2022-09-22T10:32:15.872Z,17.60
2022-09-22T10:34:51.395Z,19.97
2022-09-22T10:37:25.520Z,22.99
2022-09-22T10:40:03.652Z,26.15
2022-09-22T10:42:43.888Z,29.46
2022-09-22T10:45:19.574Z,30.33
2022-09-22T10:47:59.213Z,33.76
2022-09-22T10:51:05.310Z,34.86
2022-09-22T10:54:26.811Z,37.53
2022-09-22T10:56:57.470Z,39.08
2022-09-22T10:59:32.903Z,39.88
2022-09-22T11:02:34.922Z,41.10
2022-09-22T11:06:08.035Z,40.36
2022-09-22T11:09:24.633Z,40.03
2022-09-22T11:12:40.673Z,41.09
2022-09-22T11:15:56.400Z,42.43
2022-09-22T11:19:13.100Z,41.01
2022-09-22T11:22:12.212Z,41.49
2022-09-22T11:25:26.344Z,41.60
2022-09-22T11:28:23.717Z,41.50
2022-09-22T11:30:52.800Z,41.33
2022-09-22T11:34:23.713Z,42.07
2022-09-22T11:37:27.765Z,41.32
2022-09-22T11:40:29.648Z,40.74
2022-09-22T11:43:18.552Z,40.68
2022-09-22T11:46:13.936Z,41.28
2022-09-22T11:49:05.726Z,42.22
2022-09-22T11:51:41.298Z,41.32
2022-09-22T11:54:26.487Z,41.29
2022-09-22T11:56:59.317Z,41.98
2022-09-22T11:59:42.569Z,41.82
2022-09-22T12:02:40.037Z,41.79
2022-09-22T12:05:21.372Z,41.54
2022-09-22T12:08:10.252Z,42.55
2022-09-22T12:10:41.304Z,41.83
2022-09-22T12:13:22.510Z,42.28
2022-09-22T12:16:09.652Z,41.61
2022-09-22T12:18:51.361Z,41.85
2022-09-22T12:21:57.079Z,41.87
2022-09-22T12:24:24.776Z,41.09
2022-09-22T12:26:51.740Z,41.16
2022-09-22T12:29:28.426Z,40.95
2022-09-22T12:31:58.936Z,40.31
2022-09-22T12:34:41.071Z,40.50
2022-09-22T12:37:30.822Z,41.56
2022-09-22T12:40:18.679Z,41.36
2022-09-22T12:42:51.167Z,41.82
2022-09-22T12:45:36.698Z,40.89
2022-09-22T12:48:18.380Z,40.57
2022-09-22T12:50:46.063Z,40.60
2022-09-22T12:53:21.906Z,39.66
2022-09-22T12:55:56.672Z,40.52
2022-09-22T12:58:26.005Z,39.54
2022-09-22T13:01:27.803Z,39.41
2022-09-22T13:04:11.782Z,39.40
2022-09-22T13:06:38.478Z,40.00
2022-09-22T13:09:05.242Z,39.76
2022-09-22T13:12:12.464Z,39.83
2022-09-22T13:15:00.691Z,40.10
2022-09-22T13:17:45.865Z,40.11
2022-09-22T13:20:17.402Z,40.81
2022-09-22T13:22:44.560Z,40.38
2022-09-22T13:25:38.522Z,40.08
2022-09-22T13:28:08.272Z,38.91
2022-09-22T13:30:37.525Z,39.41
2022-09-22T13:33:04.427Z,39.17
2022-09-22T13:35:37.716Z,41.86
2022-09-22T13:38:05.430Z,40.54
2022-09-22T13:40:34.669Z,40.99
2022-09-22T13:43:08.815Z,39.63
2022-09-22T13:45:39.010Z,39.71
2022-09-22T13:48:10.392Z,39.35
2022-09-22T13:51:01.402Z,39.35
2022-09-22T13:56:18.054Z,41.55
2022-09-22T13:58:50.724Z,42.24
2022-09-22T14:01:22.549Z,42.62
2022-09-22T14:03:51.222Z,40.55
2022-09-22T14:06:25.893Z,40.34
2022-09-22T14:08:54.029Z,42.26
2022-09-22T14:11:39.187Z,42.19
2022-09-22T14:14:07.615Z,41.76
2022-09-22T14:16:49.810Z,41.02
2022-09-22T14:19:45.645Z,40.71
2022-09-22T14:22:25.760Z,40.70
2022-09-22T14:24:57.736Z,40.71
2022-09-22T14:27:34.226Z,40.03
2022-09-22T14:30:01.797Z,38.84
2022-09-22T14:32:39.750Z,39.67
2022-09-22T14:35:23.375Z,39.25
2022-09-22T14:37:51.557Z,40.00
2022-09-22T14:40:24.421Z,39.41
2022-09-22T14:43:23.867Z,39.34
2022-09-22T14:46:08.643Z,39.06
2022-09-22T14:48:36.583Z,38.71
2022-09-22T14:51:12.022Z,39.54
2022-09-22T14:53:50.611Z,39.77
2022-09-22T14:56:28.207Z,39.84
2022-09-22T14:58:58.756Z,40.14
2022-09-22T15:01:51.082Z,39.92
2022-09-22T15:04:24.896Z,40.02
2022-09-22T15:06:58.825Z,40.10
2022-09-22T15:09:42.807Z,40.82
2022-09-22T15:12:46.236Z,41.07
2022-09-22T15:15:27.567Z,40.44
2022-09-22T15:18:19.321Z,39.81
2022-09-22T15:21:11.323Z,39.60
2022-09-22T15:23:41.874Z,40.25
2022-09-22T15:26:24.920Z,39.67
2022-09-22T15:28:55.223Z,39.44
2022-09-22T15:31:26.729Z,39.48
2022-09-22T15:34:02.946Z,39.56
2022-09-22T15:36:32.778Z,39.18
2022-09-22T15:39:06.986Z,39.52
2022-09-22T15:41:34.885Z,39.55
2022-09-22T15:44:03.175Z,40.36
2022-09-22T15:46:38.033Z,39.75
2022-09-22T15:49:18.045Z,39.98
2022-09-22T15:51:44.950Z,39.81
2022-09-22T15:54:21.316Z,39.54
2022-09-22T15:56:52.381Z,39.46
2022-09-22T15:59:24.478Z,39.97
2022-09-22T16:01:55.853Z,40.19
2022-09-22T16:04:23.599Z,39.63
2022-09-22T16:06:55.759Z,39.60
2022-09-22T16:09:22.772Z,39.56
2022-09-22T16:11:49.692Z,39.71
2022-09-22T16:14:16.600Z,39.59
2022-09-22T16:16:43.544Z,39.85
2022-09-22T16:19:10.538Z,40.01
2022-09-22T16:21:40.538Z,40.06
2022-09-22T16:24:10.815Z,40.30
2022-09-22T16:26:39.811Z,40.03
2022-09-22T16:29:07.586Z,39.96
2022-09-22T16:31:36.045Z,40.51
2022-09-22T16:34:05.379Z,40.15
2022-09-22T16:36:35.116Z,40.09
2022-09-22T16:39:03.088Z,40.60
2022-09-22T16:41:32.891Z,40.55
2022-09-22T16:44:01.209Z,40.43
2022-09-22T16:46:30.327Z,40.85
2022-09-22T16:49:05.292Z,40.11
2022-09-22T16:51:36.277Z,41.57
2022-09-22T16:54:05.440Z,41.27
2022-09-22T16:56:35.453Z,41.02
2022-09-22T16:59:03.057Z,40.73
2022-09-22T17:01:32.578Z,41.03
2022-09-22T17:03:59.611Z,42.17
2022-09-22T17:06:27.573Z,41.18
2022-09-22T17:08:56.967Z,41.23
2022-09-22T17:11:30.278Z,41.47
2022-09-22T17:14:02.868Z,41.48
2022-09-22T17:16:32.538Z,41.92
2022-09-22T17:19:18.328Z,42.26
2022-09-22T17:21:47.708Z,42.62
2022-09-22T17:24:15.719Z,42.89
2022-09-22T17:26:48.693Z,43.54
2022-09-22T17:29:24.724Z,43.87
2022-09-22T17:31:57.719Z,43.77
2022-09-22T17:34:26.091Z,44.41
2022-09-22T17:36:55.261Z,44.96
2022-09-22T17:39:24.124Z,45.19
2022-09-22T17:41:51.111Z,45.43
2022-09-22T17:44:22.740Z,45.50
2022-09-22T17:47:10.167Z,45.85
2022-09-22T17:49:56.920Z,45.80
2022-09-22T17:52:29.690Z,46.52
2022-09-22T17:55:11.040Z,46.14
2022-09-22T17:57:40.981Z,46.10
2022-09-22T18:00:22.491Z,46.31
2022-09-22T18:02:52.516Z,46.80
2022-09-22T18:05:25.412Z,46.72
2022-09-22T18:07:58.256Z,46.63
2022-09-22T18:10:33.912Z,46.54
2022-09-22T18:13:02.158Z,46.76
2022-09-22T18:15:29.403Z,47.71
2022-09-22T18:17:57.957Z,47.57
2022-09-22T18:20:27.337Z,48.07
2022-09-22T18:22:56.011Z,49.29
2022-09-22T18:25:25.404Z,49.57
2022-09-22T18:27:53.163Z,49.31
2022-09-22T18:30:20.003Z,49.88
2022-09-22T18:32:48.851Z,50.36
2022-09-22T18:35:16.405Z,50.09
2022-09-22T18:37:43.733Z,49.77
2022-09-22T18:40:12.316Z,50.53
2022-09-22T18:42:41.315Z,50.50
2022-09-22T18:45:09.991Z,50.88
2022-09-22T18:47:43.487Z,50.70
2022-09-22T18:50:11.922Z,50.72
2022-09-22T18:52:42.538Z,50.34
2022-09-22T18:55:10.187Z,50.51
2022-09-22T18:57:37.629Z,50.25
2022-09-22T19:00:05.008Z,50.70
2022-09-22T19:02:31.910Z,51.01
2022-09-22T19:04:58.854Z,50.96
2022-09-22T19:07:42.866Z,50.73
2022-09-22T19:10:14.693Z,51.38
2022-09-22T19:12:42.453Z,51.75
2022-09-22T19:15:16.461Z,51.40
2022-09-22T19:17:45.571Z,52.37
2022-09-22T19:20:24.051Z,52.35
2022-09-22T19:22:52.213Z,52.22
2022-09-22T19:25:21.251Z,52.29
2022-09-22T19:27:48.282Z,52.48
2022-09-22T19:30:17.657Z,53.19
2022-09-22T19:32:46.405Z,53.72
2022-09-22T19:35:13.878Z,53.85
2022-09-22T19:37:41.287Z,53.67
2022-09-22T19:40:12.896Z,54.53
2022-09-22T19:42:40.556Z,54.87
2022-09-22T19:45:08.620Z,54.85
2022-09-22T19:47:35.601Z,54.86
2022-09-22T19:50:03.131Z,55.26
2022-09-22T19:52:29.934Z,55.93
2022-09-22T19:54:56.797Z,55.80
2022-09-22T19:57:24.067Z,56.59
2022-09-22T19:59:50.919Z,57.09
2022-09-22T20:02:17.841Z,56.65
2022-09-22T20:04:45.617Z,56.93
2022-09-22T20:07:12.496Z,56.73
2022-09-22T20:09:39.949Z,56.86
2022-09-22T20:12:06.993Z,56.87
2022-09-22T20:14:34.393Z,58.12
2022-09-22T20:17:05.432Z,57.01
2022-09-22T20:19:35.604Z,57.71
2022-09-22T20:22:29.409Z,57.68
2022-09-22T20:24:59.377Z,58.14
2022-09-22T20:27:32.654Z,58.20
2022-09-22T20:30:00.725Z,58.61
2022-09-22T20:32:34.508Z,58.67
2022-09-22T20:35:01.627Z,58.87
2022-09-22T20:37:29.881Z,59.08
2022-09-22T20:39:57.419Z,59.50
2022-09-22T20:42:24.308Z,59.56
2022-09-22T20:44:51.202Z,59.56
2022-09-22T20:47:21.818Z,59.73
2022-09-22T20:49:51.764Z,60.29
2022-09-22T20:53:54.387Z,59.67
2022-09-22T20:56:21.423Z,60.01
2022-09-22T20:58:48.256Z,60.19
2022-09-22T21:01:17.087Z,60.39
2022-09-22T21:03:44.526Z,60.19
2022-09-22T21:06:12.998Z,60.08
2022-09-22T21:09:00.710Z,60.19
2022-09-22T21:11:29.035Z,60.46
2022-09-22T21:14:01.829Z,60.45
2022-09-22T21:16:29.955Z,61.02
2022-09-22T21:18:57.228Z,60.47
2022-09-22T21:21:24.240Z,60.85
2022-09-22T21:23:51.238Z,61.17
2022-09-22T21:26:20.659Z,60.56
2022-09-22T21:28:50.765Z,60.58
2022-09-22T21:31:18.586Z,61.10
2022-09-22T21:33:46.028Z,61.59
2022-09-22T21:36:16.502Z,61.94
2022-09-22T21:38:46.343Z,62.60
2022-09-22T21:41:17.563Z,62.83
2022-09-22T21:43:44.606Z,62.78
2022-09-22T21:46:20.869Z,62.36
2022-09-22T21:48:48.193Z,62.40
2022-09-22T21:51:21.490Z,62.58
2022-09-22T21:53:52.820Z,62.97
2022-09-22T21:56:22.242Z,62.92
2022-09-22T21:58:52.503Z,63.79
2022-09-22T22:01:22.692Z,64.59
2022-09-22T22:03:53.222Z,65.20
2022-09-22T22:06:32.516Z,65.82
2022-09-22T22:09:06.460Z,66.37
2022-09-22T22:11:46.050Z,67.27
2022-09-22T22:14:13.327Z,68.23
2022-09-22T22:16:44.182Z,67.75
2022-09-22T22:19:14.552Z,68.34
2022-09-22T22:21:42.811Z,68.71
2022-09-22T22:24:18.063Z,69.15
2022-09-22T22:26:51.672Z,68.92
2022-09-22T22:29:19.532Z,68.86
2022-09-22T22:31:48.855Z,69.40
2022-09-22T22:34:18.962Z,70.44
2022-09-22T22:36:47.354Z,70.79
2022-09-22T22:39:14.707Z,71.49
2022-09-22T22:41:41.811Z,71.89
2022-09-22T22:44:08.676Z,72.02
2022-09-22T22:46:36.231Z,71.48
2022-09-22T22:49:03.436Z,71.21
2022-09-22T22:51:30.500Z,71.69
2022-09-22T22:53:57.303Z,72.02
2022-09-22T22:56:27.182Z,72.17
2022-09-22T22:58:55.762Z,72.36
2022-09-22T23:01:28.895Z,73.05
2022-09-22T23:03:59.426Z,72.32
2022-09-22T23:06:39.507Z,72.69
2022-09-22T23:09:09.935Z,72.91
2022-09-22T23:11:39.874Z,72.94
2022-09-22T23:14:11.153Z,74.39
2022-09-22T23:16:41.433Z,74.34
2022-09-22T23:19:16.007Z,74.77
2022-09-22T23:21:43.299Z,74.29
2022-09-22T23:24:14.378Z,75.18
2022-09-22T23:26:41.476Z,74.59
2022-09-22T23:29:08.375Z,74.65
2022-09-22T23:31:35.205Z,74.58
2022-09-22T23:34:02.064Z,73.92
2022-09-22T23:36:29.922Z,73.98
2022-09-22T23:39:03.737Z,74.32
2022-09-22T23:41:33.576Z,74.50
2022-09-22T23:44:00.644Z,73.92
2022-09-22T23:46:27.853Z,74.14
2022-09-22T23:48:55.495Z,74.12
2022-09-22T23:51:23.263Z,74.29
2022-09-22T23:53:50.050Z,74.17
2022-09-22T23:56:17.164Z,73.73
2022-09-22T23:58:45.291Z,73.54
